Terminal Aerodrome Forecast
Issued by NWS Pocatello, ID

Home | Current Version | Previous Version | Text Only | Print | Product List | Glossary On
Versions: 1 2 3 4 5 6 7 8 9 10 11 12
000
FTUS45 KPIH 041720
TAFIDA
TAF
KIDA 041720Z 0418/0518 VRB05KT P6SM FEW200
     FM042100 24010KT P6SM SCT200
     FM050300 16007KT P6SM FEW110 SCT160 BKN200
     FM051200 21010KT P6SM SCT080 BKN120 BKN160
     FM051500 24015KT P6SM VCSH SCT060 BKN100 OVC140=

USA.gov is the U.S. government's official web portal to all federal, state and local government web resources and services.